Klamath, California
Current Conditions -  °F | °C
As of 2:56 PM on Wednesday 22 Oct 2014 (Local Time) from KCEC Reporting Station
Light Rain Light Rain  
Wind Chill: 63°   Ceiling: 4500
Heat Index: 63°   Visibility: 9mi
Dew Point: 56°   Wind: 24mph
Humidity: 78%   Direction: 180°S
Pressure: 29.91"   Gusts: 31mph
Location:  41.53°N, 124.04°W
Report Text: KCEC 222156Z AUTO 18021G27KT 9SM -RA SCT033 OVC045 17/13 A2991 RMK AO2 PK WND 17027/2155 RAB46 SLP126 P0000 T01720133
Loading
Personal Weather Stations






























Interactive Weather Map
Tropical Storm Tracking
New forecast layout! Learn more

10-Day Weather Forecast

Advertisements
Track Severe Weather on mobile